Time;durP1;ratioP1;P1;durP2;ratioP2;P2;SDS_P1;SDS_P2;PMS_P1;PMS_P2;Temp;Humidity;BMP_temperature;BMP_pressure;BME280_temperature;BME280_humidity;BME280_pressure;Samples;Min_cycle;Max_cycle;Signal;HPM_P1;HPM_P2
2021/03/09 00:00:22;;;;;;;26.73;17.42;;;;;;;;;;5071892;28;20436;-76
2021/03/09 00:02:48;;;;;;;23.67;17.40;;;;;;;;;;5061270;28;20433;-76
2021/03/09 00:05:14;;;;;;;25.13;17.17;;;;;;;;;;5068155;28;20715;-76
2021/03/09 00:07:40;;;;;;;26.00;16.77;;;;;;;;;;5068723;28;20396;-76
2021/03/09 00:10:07;;;;;;;23.85;16.65;;;;;;;;;;5066822;28;20484;-74
2021/03/09 00:12:33;;;;;;;25.33;17.02;;;;;;;;;;5066909;28;20471;-75
2021/03/09 00:14:59;;;;;;;26.42;16.85;;;;;;;;;;5057560;28;20422;-76
2021/03/09 00:17:24;;;;;;;23.20;16.40;;;;;;;;;;5058488;28;20442;-76
2021/03/09 00:19:50;;;;;;;24.85;16.27;;;;;;;;;;5069159;28;20423;-75
2021/03/09 00:22:16;;;;;;;24.02;16.35;;;;;;;;;;5061923;28;20905;-76
2021/03/09 00:24:42;;;;;;;23.67;16.03;;;;;;;;;;5068736;28;20494;-74
2021/03/09 00:27:09;;;;;;;23.70;15.63;;;;;;;;;;5066418;28;20405;-76
2021/03/09 00:29:36;;;;;;;25.30;15.95;;;;;;;;;;5059886;28;20407;-76
2021/03/09 00:32:02;;;;;;;26.10;16.80;;;;;;;;;;5054433;28;20415;-75
2021/03/09 00:34:28;;;;;;;25.10;17.13;;;;;;;;;;5063310;28;20400;-76
2021/03/09 00:36:54;;;;;;;24.33;15.15;;;;;;;;;;5060690;28;20400;-74
2021/03/09 00:39:20;;;;;;;26.25;17.00;;;;;;;;;;5066781;28;20405;-75
2021/03/09 00:41:46;;;;;;;25.50;16.67;;;;;;;;;;5073545;28;20414;-75
2021/03/09 00:44:11;;;;;;;24.75;16.10;;;;;;;;;;5066425;28;20463;-76
2021/03/09 00:46:37;;;;;;;27.58;17.23;;;;;;;;;;5076509;28;20410;-75
2021/03/09 00:49:03;;;;;;;25.73;17.30;;;;;;;;;;5085101;28;20428;-75
2021/03/09 00:51:29;;;;;;;26.58;17.52;;;;;;;;;;5062623;28;20470;-75
2021/03/09 00:53:55;;;;;;;24.03;16.77;;;;;;;;;;5068620;28;20444;-75
2021/03/09 00:56:21;;;;;;;26.60;17.75;;;;;;;;;;5068144;28;20412;-74
2021/03/09 00:58:47;;;;;;;27.35;18.13;;;;;;;;;;5087056;28;20471;-75
2021/03/09 01:01:13;;;;;;;28.17;18.50;;;;;;;;;;5052286;28;20396;-75
2021/03/09 01:03:39;;;;;;;29.15;19.20;;;;;;;;;;5077506;28;20430;-75
2021/03/09 01:06:05;;;;;;;28.70;19.60;;;;;;;;;;5073051;28;20491;-75
2021/03/09 01:08:31;;;;;;;29.30;19.90;;;;;;;;;;5086508;28;20382;-75
2021/03/09 01:10:57;;;;;;;30.30;20.77;;;;;;;;;;5053117;28;20429;-76
2021/03/09 01:13:23;;;;;;;33.03;22.23;;;;;;;;;;5047157;28;20745;-75
2021/03/09 01:15:49;;;;;;;32.55;22.83;;;;;;;;;;5053756;28;20431;-76
2021/03/09 01:18:15;;;;;;;31.50;22.13;;;;;;;;;;5073794;28;20476;-75
2021/03/09 01:20:41;;;;;;;32.72;23.02;;;;;;;;;;5075223;28;20849;-75
2021/03/09 01:23:07;;;;;;;33.47;23.55;;;;;;;;;;5064587;28;20899;-75
2021/03/09 01:25:33;;;;;;;34.33;23.10;;;;;;;;;;5078502;28;20401;-75
2021/03/09 01:27:59;;;;;;;36.05;23.70;;;;;;;;;;5046008;28;20431;-75
2021/03/09 01:30:25;;;;;;;32.53;22.92;;;;;;;;;;5083161;28;20386;-75
2021/03/09 01:32:51;;;;;;;34.47;24.23;;;;;;;;;;5057629;28;20513;-76
2021/03/09 01:35:17;;;;;;;36.40;24.08;;;;;;;;;;5072313;28;20468;-75
2021/03/09 01:37:43;;;;;;;35.90;24.58;;;;;;;;;;5067065;28;20437;-75
2021/03/09 01:40:10;;;;;;;36.58;24.55;;;;;;;;;;5059514;28;21079;-76
2021/03/09 01:42:37;;;;;;;35.78;23.58;;;;;;;;;;5035525;28;20456;-75
2021/03/09 01:45:04;;;;;;;33.35;23.20;;;;;;;;;;5045385;28;22503;-77
2021/03/09 01:47:31;;;;;;;33.50;22.58;;;;;;;;;;5042487;28;20476;-76
2021/03/09 01:49:57;;;;;;;33.83;22.53;;;;;;;;;;5047820;28;21064;-76
2021/03/09 01:52:23;;;;;;;31.83;22.40;;;;;;;;;;5046806;28;20460;-75
2021/03/09 01:54:49;;;;;;;33.08;23.58;;;;;;;;;;5038740;28;20518;-74
2021/03/09 01:57:16;;;;;;;35.80;22.98;;;;;;;;;;5046102;28;20397;-75
2021/03/09 01:59:42;;;;;;;35.70;23.20;;;;;;;;;;5045115;28;20399;-75
2021/03/09 02:02:09;;;;;;;33.50;23.00;;;;;;;;;;5035806;28;20477;-74
2021/03/09 02:04:35;;;;;;;34.90;22.47;;;;;;;;;;5045637;28;21108;-75
2021/03/09 02:07:01;;;;;;;34.10;22.83;;;;;;;;;;5051394;28;20936;-76
2021/03/09 02:09:27;;;;;;;32.58;22.58;;;;;;;;;;5039253;28;20405;-76
2021/03/09 02:11:53;;;;;;;32.20;21.25;;;;;;;;;;5049222;28;20432;-75
2021/03/09 02:14:34;;;;;;;31.90;21.05;;;;;;;;;;5048952;28;21107;-75
2021/03/09 02:17:19;;;;;;;30.90;21.48;;;;;;;;;;5043296;28;20492;-75
2021/03/09 02:19:48;;;;;;;31.30;22.25;;;;;;;;;;5046630;28;20476;-75
2021/03/09 02:22:33;;;;;;;31.55;22.02;;;;;;;;;;5027060;28;20411;-76
2021/03/09 02:24:59;;;;;;;32.08;22.08;;;;;;;;;;5043415;28;20414;-75
2021/03/09 02:27:45;;;;;;;31.00;21.83;;;;;;;;;;5043005;28;20401;-76
2021/03/09 02:30:16;;;;;;;31.48;22.20;;;;;;;;;;5031457;28;20394;-75
2021/03/09 02:32:48;;;;;;;35.17;22.67;;;;;;;;;;5046646;28;20410;-76
2021/03/09 02:35:19;;;;;;;34.85;23.63;;;;;;;;;;5046040;28;20404;-78
2021/03/09 02:37:48;;;;;;;36.47;24.77;;;;;;;;;;5042911;28;20428;-76
2021/03/09 02:40:14;;;;;;;37.13;25.35;;;;;;;;;;5037967;28;20389;-76
2021/03/09 02:42:45;;;;;;;35.83;25.08;;;;;;;;;;5063391;28;20501;-76
2021/03/09 02:45:13;;;;;;;33.85;24.10;;;;;;;;;;5059478;28;20414;-76
2021/03/09 02:47:39;;;;;;;37.25;25.98;;;;;;;;;;5057815;28;20478;-75
2021/03/09 02:50:06;;;;;;;37.83;26.33;;;;;;;;;;5056662;28;20411;-75
2021/03/09 02:52:32;;;;;;;37.45;26.20;;;;;;;;;;5064485;28;20427;-75
2021/03/09 02:54:59;;;;;;;42.42;27.98;;;;;;;;;;5067084;28;20388;-76
2021/03/09 02:57:26;;;;;;;41.45;28.00;;;;;;;;;;5058151;28;20695;-76
2021/03/09 02:59:52;;;;;;;39.58;27.73;;;;;;;;;;5064969;28;20431;-76
2021/03/09 03:02:19;;;;;;;38.53;26.40;;;;;;;;;;5069945;28;20434;-76
2021/03/09 03:04:47;;;;;;;42.20;28.67;;;;;;;;;;5065000;28;20387;-75
2021/03/09 03:07:15;;;;;;;37.33;26.85;;;;;;;;;;5064941;28;20474;-75
2021/03/09 03:09:41;;;;;;;39.93;28.13;;;;;;;;;;5065431;28;20410;-76
2021/03/09 03:12:08;;;;;;;40.22;28.35;;;;;;;;;;5050619;28;20956;-76
2021/03/09 03:14:35;;;;;;;38.97;27.67;;;;;;;;;;5057999;28;20586;-76
2021/03/09 03:17:02;;;;;;;39.42;27.05;;;;;;;;;;5063746;28;20407;-76
2021/03/09 03:19:28;;;;;;;42.55;27.95;;;;;;;;;;5057107;28;20401;-75
2021/03/09 03:21:54;;;;;;;41.65;28.88;;;;;;;;;;5060970;28;20388;-75
2021/03/09 03:24:21;;;;;;;40.22;28.38;;;;;;;;;;5065932;28;20534;-77
2021/03/09 03:26:47;;;;;;;39.50;27.93;;;;;;;;;;5063976;28;20478;-75
2021/03/09 03:29:15;;;;;;;45.03;30.63;;;;;;;;;;5065250;28;20420;-76
2021/03/09 03:31:41;;;;;;;41.42;29.13;;;;;;;;;;5066687;28;20495;-75
2021/03/09 03:34:07;;;;;;;42.40;29.40;;;;;;;;;;5064683;28;20427;-77
2021/03/09 03:36:34;;;;;;;43.00;30.23;;;;;;;;;;5059470;28;20463;-76
2021/03/09 03:39:00;;;;;;;47.20;30.40;;;;;;;;;;5062468;28;20454;-75
2021/03/09 03:41:26;;;;;;;45.42;30.58;;;;;;;;;;5068120;28;20421;-75
2021/03/09 03:43:52;;;;;;;48.25;32.10;;;;;;;;;;5074124;28;20829;-76
2021/03/09 03:46:18;;;;;;;45.95;32.20;;;;;;;;;;5075507;28;20868;-75
2021/03/09 03:48:46;;;;;;;48.42;32.63;;;;;;;;;;5076158;28;20913;-75
2021/03/09 03:51:14;;;;;;;48.80;33.38;;;;;;;;;;5066864;28;20442;-75
2021/03/09 03:54:01;;;;;;;45.80;32.70;;;;;;;;;;5065721;28;20405;-75
2021/03/09 03:56:46;;;;;;;49.38;33.35;;;;;;;;;;5059138;28;20398;-77
2021/03/09 03:59:14;;;;;;;47.53;33.40;;;;;;;;;;5067525;28;20386;-75
2021/03/09 04:01:41;;;;;;;48.63;32.38;;;;;;;;;;5077917;28;20408;-75
2021/03/09 04:04:09;;;;;;;49.00;34.13;;;;;;;;;;5071069;28;20413;-75
2021/03/09 04:06:36;;;;;;;48.65;34.47;;;;;;;;;;5066042;28;20707;-75
2021/03/09 04:09:03;;;;;;;49.13;34.20;;;;;;;;;;5052732;28;20944;-76
2021/03/09 04:11:30;;;;;;;49.38;34.00;;;;;;;;;;5047751;28;20421;-75
2021/03/09 04:13:57;;;;;;;51.03;34.10;;;;;;;;;;5081908;28;20872;-77
2021/03/09 04:16:24;;;;;;;46.28;32.63;;;;;;;;;;5081403;28;20393;-75
2021/03/09 04:18:50;;;;;;;49.13;33.90;;;;;;;;;;5055666;28;20842;-76
2021/03/09 04:21:17;;;;;;;48.65;34.58;;;;;;;;;;5057834;28;20974;-75
2021/03/09 04:23:43;;;;;;;49.97;34.92;;;;;;;;;;5067935;28;20397;-75
2021/03/09 04:26:10;;;;;;;46.80;33.70;;;;;;;;;;5072482;28;20400;-74
2021/03/09 04:28:36;;;;;;;50.33;34.55;;;;;;;;;;5072916;28;20393;-76
2021/03/09 04:31:02;;;;;;;51.42;35.47;;;;;;;;;;5048011;28;20416;-75
2021/03/09 04:33:29;;;;;;;50.08;34.65;;;;;;;;;;5050285;28;20499;-75
2021/03/09 04:35:56;;;;;;;46.97;32.58;;;;;;;;;;5082446;28;20978;-76
2021/03/09 04:38:22;;;;;;;47.08;34.55;;;;;;;;;;5083979;28;20394;-76
2021/03/09 04:40:48;;;;;;;44.33;32.38;;;;;;;;;;5070091;28;20397;-75
2021/03/09 04:43:14;;;;;;;47.17;33.42;;;;;;;;;;5058172;28;21108;-77
2021/03/09 04:45:40;;;;;;;44.20;31.80;;;;;;;;;;5075603;28;20491;-75
2021/03/09 04:48:07;;;;;;;47.38;33.35;;;;;;;;;;5053156;28;20431;-75
2021/03/09 04:50:34;;;;;;;50.47;34.42;;;;;;;;;;5065954;28;20919;-76
2021/03/09 04:53:01;;;;;;;48.73;33.97;;;;;;;;;;5068055;28;20398;-75
2021/03/09 04:55:27;;;;;;;49.58;33.92;;;;;;;;;;5056209;28;20401;-75
2021/03/09 04:57:54;;;;;;;45.95;32.92;;;;;;;;;;5070772;28;20390;-75
2021/03/09 05:00:21;;;;;;;49.65;32.78;;;;;;;;;;5069058;28;20831;-76
2021/03/09 05:02:47;;;;;;;44.75;32.05;;;;;;;;;;5064751;28;20487;-75
2021/03/09 05:05:15;;;;;;;46.53;32.42;;;;;;;;;;5075324;28;20851;-75
2021/03/09 05:07:41;;;;;;;48.08;34.28;;;;;;;;;;5051023;28;20392;-76
2021/03/09 05:10:07;;;;;;;44.83;31.60;;;;;;;;;;5081264;28;20494;-75
2021/03/09 05:12:34;;;;;;;46.92;33.22;;;;;;;;;;5084269;28;20422;-76
2021/03/09 05:15:00;;;;;;;45.42;30.77;;;;;;;;;;5061895;28;20398;-75
2021/03/09 05:17:26;;;;;;;47.60;32.30;;;;;;;;;;5072290;28;20390;-75
2021/03/09 05:19:52;;;;;;;45.38;32.55;;;;;;;;;;5064530;28;20715;-76
2021/03/09 05:22:18;;;;;;;42.97;30.17;;;;;;;;;;5066436;28;20886;-75
2021/03/09 05:24:44;;;;;;;42.80;30.65;;;;;;;;;;5070308;28;20856;-75
2021/03/09 05:27:10;;;;;;;45.10;32.60;;;;;;;;;;5049368;28;20960;-77
2021/03/09 05:29:37;;;;;;;44.55;31.23;;;;;;;;;;5068839;28;20402;-75
2021/03/09 05:32:03;;;;;;;41.60;30.23;;;;;;;;;;5068457;28;20416;-74
2021/03/09 05:34:29;;;;;;;41.90;31.67;;;;;;;;;;5051548;28;21163;-75
2021/03/09 05:36:55;;;;;;;43.77;31.10;;;;;;;;;;5059457;28;20402;-75
2021/03/09 05:39:21;;;;;;;41.60;31.25;;;;;;;;;;5070596;28;20904;-75
2021/03/09 05:41:47;;;;;;;41.67;30.63;;;;;;;;;;5042215;28;20489;-77
2021/03/09 05:44:13;;;;;;;44.08;30.63;;;;;;;;;;5045785;28;20454;-75
2021/03/09 05:46:39;;;;;;;41.35;30.27;;;;;;;;;;5045526;28;20431;-76
2021/03/09 05:49:05;;;;;;;46.33;33.13;;;;;;;;;;5043971;28;20860;-76
2021/03/09 05:51:31;;;;;;;44.42;32.10;;;;;;;;;;5044097;28;20425;-76
2021/03/09 05:53:57;;;;;;;45.93;33.20;;;;;;;;;;5026899;28;21011;-76
2021/03/09 05:56:24;;;;;;;47.38;33.97;;;;;;;;;;5046919;28;20799;-76
2021/03/09 05:58:51;;;;;;;42.90;31.27;;;;;;;;;;5031241;28;20408;-76
2021/03/09 06:01:17;;;;;;;41.85;30.83;;;;;;;;;;5047478;28;20428;-76
2021/03/09 06:03:43;;;;;;;43.28;31.88;;;;;;;;;;5046399;28;20440;-77
2021/03/09 06:06:09;;;;;;;41.63;30.33;;;;;;;;;;5032805;28;20463;-76
2021/03/09 06:08:35;;;;;;;41.95;31.63;;;;;;;;;;5046069;28;20878;-75
2021/03/09 06:11:17;;;;;;;43.47;32.65;;;;;;;;;;5044402;28;20417;-74
2021/03/09 06:13:45;;;;;;;44.95;32.05;;;;;;;;;;5043798;28;20405;-75
2021/03/09 06:16:12;;;;;;;42.03;31.73;;;;;;;;;;5044590;28;20478;-76
2021/03/09 06:18:38;;;;;;;43.97;33.30;;;;;;;;;;5046452;28;20390;-77
2021/03/09 06:21:14;;;;;;;42.60;31.00;;;;;;;;;;5045475;28;20389;-75
2021/03/09 06:23:41;;;;;;;43.75;32.72;;;;;;;;;;5030584;28;20492;-76
2021/03/09 06:26:26;;;;;;;44.47;31.85;;;;;;;;;;5044943;28;20409;-75
2021/03/09 06:29:06;;;;;;;48.22;33.90;;;;;;;;;;5030748;28;20417;-76
2021/03/09 06:31:31;;;;;;;43.80;32.47;;;;;;;;;;5025402;28;20959;-76
2021/03/09 06:34:19;;;;;;;45.45;33.08;;;;;;;;;;5038742;28;20409;-76
2021/03/09 06:37:00;;;;;;;46.47;33.42;;;;;;;;;;5023169;28;20413;-76
2021/03/09 06:39:41;;;;;;;43.65;32.20;;;;;;;;;;5039917;28;20456;-76
2021/03/09 06:42:10;;;;;;;43.20;31.48;;;;;;;;;;5050768;28;20515;-76
2021/03/09 06:44:42;;;;;;;46.13;34.37;;;;;;;;;;5047754;28;20997;-79
2021/03/09 06:47:09;;;;;;;48.30;35.53;;;;;;;;;;5050577;28;20404;-75
2021/03/09 06:49:48;;;;;;;49.17;35.42;;;;;;;;;;5047529;28;20400;-77
2021/03/09 06:52:15;;;;;;;46.50;34.10;;;;;;;;;;5065634;28;20419;-77
2021/03/09 06:54:41;;;;;;;45.72;33.15;;;;;;;;;;5062439;28;20436;-77
2021/03/09 06:57:09;;;;;;;44.40;33.47;;;;;;;;;;5064633;28;20978;-75
2021/03/09 06:59:35;;;;;;;46.65;35.45;;;;;;;;;;5065958;28;20592;-75
2021/03/09 07:02:09;;;;;;;51.40;38.10;;;;;;;;;;5061657;28;20705;-75
2021/03/09 07:04:36;;;;;;;56.17;40.28;;;;;;;;;;5063321;28;20485;-75
2021/03/09 07:07:03;;;;;;;51.75;38.40;;;;;;;;;;5059292;28;20399;-75
2021/03/09 07:09:29;;;;;;;54.42;39.20;;;;;;;;;;5058981;28;20438;-75
2021/03/09 07:11:55;;;;;;;54.40;38.53;;;;;;;;;;5048583;28;20447;-74
2021/03/09 07:14:22;;;;;;;63.15;43.72;;;;;;;;;;5068709;28;20402;-74
2021/03/09 07:16:50;;;;;;;69.65;46.50;;;;;;;;;;5066365;28;20411;-74
2021/03/09 07:19:26;;;;;;;127.35;68.97;;;;;;;;;;5049304;28;20449;-76
2021/03/09 07:21:53;;;;;;;65.28;43.53;;;;;;;;;;5054186;28;20395;-73
2021/03/09 07:24:22;;;;;;;64.83;43.30;;;;;;;;;;5066008;28;20396;-75
2021/03/09 07:26:55;;;;;;;59.50;40.10;;;;;;;;;;5061169;28;20398;-76
2021/03/09 07:29:22;;;;;;;60.15;41.78;;;;;;;;;;5045308;28;20464;-75
2021/03/09 07:31:48;;;;;;;55.53;39.55;;;;;;;;;;5067562;28;20915;-78
2021/03/09 07:34:15;;;;;;;50.08;36.70;;;;;;;;;;5068880;28;20415;-76
2021/03/09 07:36:41;;;;;;;52.05;34.50;;;;;;;;;;5066040;28;20898;-78
2021/03/09 07:39:09;;;;;;;45.58;32.30;;;;;;;;;;5007391;28;20412;-76
2021/03/09 07:41:36;;;;;;;48.05;31.98;;;;;;;;;;5057112;28;20492;-75
2021/03/09 07:44:02;;;;;;;37.30;24.35;;;;;;;;;;5048842;28;20401;-75
2021/03/09 07:46:28;;;;;;;31.80;21.85;;;;;;;;;;5048538;28;20398;-76
2021/03/09 07:48:54;;;;;;;33.15;22.73;;;;;;;;;;5044482;28;20792;-76
2021/03/09 07:51:21;;;;;;;34.17;23.63;;;;;;;;;;5047831;28;20425;-76
2021/03/09 07:54:06;;;;;;;32.30;21.27;;;;;;;;;;5048555;28;20405;-75
2021/03/09 07:56:32;;;;;;;28.33;18.13;;;;;;;;;;5047529;28;20405;-76
2021/03/09 07:59:08;;;;;;;24.15;15.85;;;;;;;;;;5047564;28;20400;-76
2021/03/09 08:01:45;;;;;;;26.38;14.63;;;;;;;;;;5027307;28;20813;-78
2021/03/09 08:04:11;;;;;;;19.25;11.43;;;;;;;;;;5049316;28;20948;-74
2021/03/09 08:06:41;;;;;;;19.55;11.98;;;;;;;;;;5033415;28;20902;-76
2021/03/09 08:09:07;;;;;;;18.15;11.13;;;;;;;;;;5049985;28;20400;-76
2021/03/09 08:11:33;;;;;;;17.35;9.93;;;;;;;;;;5032077;28;20427;-76
2021/03/09 08:14:05;;;;;;;19.13;9.80;;;;;;;;;;5026346;28;20463;-76
2021/03/09 08:16:34;;;;;;;15.98;9.45;;;;;;;;;;5046954;28;20479;-77
2021/03/09 08:19:08;;;;;;;16.73;8.77;;;;;;;;;;5037599;28;20938;-76
2021/03/09 08:21:40;;;;;;;15.00;7.95;;;;;;;;;;5029740;28;20418;-76
2021/03/09 08:24:06;;;;;;;15.20;8.00;;;;;;;;;;5043378;28;20406;-75
2021/03/09 08:26:32;;;;;;;19.00;7.65;;;;;;;;;;5029951;28;20404;-75
2021/03/09 08:28:58;;;;;;;15.85;6.85;;;;;;;;;;5049806;28;20912;-76
2021/03/09 08:31:27;;;;;;;15.15;5.90;;;;;;;;;;5041671;28;20462;-78
2021/03/09 08:34:13;;;;;;;12.02;6.78;;;;;;;;;;5043743;28;20401;-76
2021/03/09 08:36:40;;;;;;;14.73;6.30;;;;;;;;;;5039382;28;20407;-76
2021/03/09 08:39:09;;;;;;;13.68;5.65;;;;;;;;;;5045294;28;20433;-76
2021/03/09 08:41:35;;;;;;;12.23;5.90;;;;;;;;;;5028731;28;20861;-75
2021/03/09 08:44:13;;;;;;;10.55;5.80;;;;;;;;;;5047816;28;20883;-75
2021/03/09 08:46:59;;;;;;;10.60;6.20;;;;;;;;;;5045491;28;20472;-76
2021/03/09 08:49:37;;;;;;;15.80;7.90;;;;;;;;;;5043856;28;20396;-78
2021/03/09 08:52:32;;;;;;;15.52;5.95;;;;;;;;;;5047353;28;20845;-75
2021/03/09 08:55:05;;;;;;;11.80;5.40;;;;;;;;;;5047646;28;20414;-75
2021/03/09 08:57:31;;;;;;;13.45;5.35;;;;;;;;;;5049186;28;20397;-76
2021/03/09 09:00:09;;;;;;;10.25;5.18;;;;;;;;;;5052836;28;20385;-74
2021/03/09 09:02:39;;;;;;;14.02;5.45;;;;;;;;;;5045288;28;20463;-75
2021/03/09 09:05:07;;;;;;;11.57;4.70;;;;;;;;;;5028619;28;20492;-75
2021/03/09 09:07:43;;;;;;;9.82;4.38;;;;;;;;;;5047247;28;20403;-76
2021/03/09 09:10:25;;;;;;;12.27;4.95;;;;;;;;;;5029467;28;20504;-77
2021/03/09 09:12:52;;;;;;;9.77;4.40;;;;;;;;;;5046695;28;20424;-74
2021/03/09 09:15:20;;;;;;;11.82;4.40;;;;;;;;;;5046308;28;20394;-77
2021/03/09 09:17:46;;;;;;;10.13;4.30;;;;;;;;;;5029192;28;20405;-76
2021/03/09 09:20:22;;;;;;;9.13;4.15;;;;;;;;;;5048193;28;20410;-77
2021/03/09 09:22:51;;;;;;;10.45;4.18;;;;;;;;;;5029395;28;20401;-76
2021/03/09 09:25:17;;;;;;;8.88;3.88;;;;;;;;;;5046244;28;20393;-77
2021/03/09 09:27:47;;;;;;;7.88;3.30;;;;;;;;;;5047126;28;20401;-75
2021/03/09 09:30:17;;;;;;;8.80;3.63;;;;;;;;;;5046808;28;20404;-76
2021/03/09 09:33:12;;;;;;;8.82;3.40;;;;;;;;;;5045352;28;20421;-74
2021/03/09 09:35:39;;;;;;;6.82;3.15;;;;;;;;;;5007378;28;20401;-76
2021/03/09 09:38:10;;;;;;;8.52;3.80;;;;;;;;;;5030025;28;20401;-75
2021/03/09 09:40:39;;;;;;;7.18;3.20;;;;;;;;;;5046976;28;20393;-76
2021/03/09 09:43:07;;;;;;;9.77;3.63;;;;;;;;;;5042959;28;20524;-77
2021/03/09 09:45:34;;;;;;;8.57;3.40;;;;;;;;;;5025468;28;20451;-79
2021/03/09 09:48:00;;;;;;;10.55;3.75;;;;;;;;;;5025992;28;20790;-74
2021/03/09 09:50:27;;;;;;;8.27;3.28;;;;;;;;;;5022558;28;20885;-73
2021/03/09 09:53:00;;;;;;;8.02;3.08;;;;;;;;;;5043437;28;20448;-74
2021/03/09 09:55:30;;;;;;;6.88;3.53;;;;;;;;;;5025546;28;20862;-75
2021/03/09 09:57:58;;;;;;;6.35;3.45;;;;;;;;;;5026942;28;20405;-75
2021/03/09 10:00:28;;;;;;;6.88;3.20;;;;;;;;;;5028742;28;20883;-75
2021/03/09 10:03:14;;;;;;;8.15;3.72;;;;;;;;;;5044965;28;20402;-75
2021/03/09 10:05:40;;;;;;;9.40;4.22;;;;;;;;;;5026269;28;20410;-73
2021/03/09 10:08:06;;;;;;;8.98;4.43;;;;;;;;;;5042165;28;20869;-77
2021/03/09 10:10:34;;;;;;;8.40;4.00;;;;;;;;;;5019226;28;20397;-76
2021/03/09 10:13:00;;;;;;;7.20;4.10;;;;;;;;;;5041184;28;20500;-75
2021/03/09 10:15:45;;;;;;;6.50;3.55;;;;;;;;;;5042779;28;20893;-76
2021/03/09 10:18:15;;;;;;;6.78;4.07;;;;;;;;;;5040409;28;20394;-76
2021/03/09 10:20:42;;;;;;;9.25;4.40;;;;;;;;;;5019218;28;20406;-76
2021/03/09 10:23:09;;;;;;;8.30;4.32;;;;;;;;;;5043524;28;21086;-76
2021/03/09 10:25:38;;;;;;;7.10;4.13;;;;;;;;;;5027470;28;20774;-77
2021/03/09 10:28:05;;;;;;;10.05;4.38;;;;;;;;;;5035950;28;20393;-76
2021/03/09 10:30:38;;;;;;;6.80;3.60;;;;;;;;;;5040533;28;20404;-75
2021/03/09 10:33:08;;;;;;;7.07;3.83;;;;;;;;;;5037287;28;20936;-77
2021/03/09 10:35:34;;;;;;;7.88;3.13;;;;;;;;;;5040215;28;20478;-75
2021/03/09 10:38:00;;;;;;;9.32;3.50;;;;;;;;;;5041397;28;20485;-77
2021/03/09 10:40:36;;;;;;;4.32;2.42;;;;;;;;;;5039697;28;20411;-75
2021/03/09 10:43:02;;;;;;;6.00;2.95;;;;;;;;;;5021684;28;20424;-76
2021/03/09 10:45:30;;;;;;;5.47;2.80;;;;;;;;;;5038483;28;20399;-76
2021/03/09 10:47:59;;;;;;;5.72;2.90;;;;;;;;;;5019231;28;20407;-76
2021/03/09 10:50:27;;;;;;;6.13;2.92;;;;;;;;;;5027492;28;20394;-75
2021/03/09 10:52:53;;;;;;;7.05;3.10;;;;;;;;;;5037234;28;20409;-77
2021/03/09 10:55:19;;;;;;;6.35;3.10;;;;;;;;;;5041305;28;20466;-75
2021/03/09 10:57:45;;;;;;;7.10;3.00;;;;;;;;;;5040004;28;20402;-76
2021/03/09 11:00:16;;;;;;;8.18;3.35;;;;;;;;;;5043771;28;20696;-76
2021/03/09 11:02:42;;;;;;;5.28;3.05;;;;;;;;;;5021868;28;20480;-74
2021/03/09 11:05:08;;;;;;;9.48;4.70;;;;;;;;;;5043035;28;20415;-76
2021/03/09 11:07:34;;;;;;;7.32;3.40;;;;;;;;;;5025084;28;20971;-76
2021/03/09 11:10:00;;;;;;;9.70;3.70;;;;;;;;;;5023233;28;21232;-75
2021/03/09 11:12:27;;;;;;;8.00;3.35;;;;;;;;;;5027599;28;20413;-76
2021/03/09 11:14:52;;;;;;;6.65;3.45;;;;;;;;;;5038197;28;20405;-76
2021/03/09 11:17:19;;;;;;;8.50;3.50;;;;;;;;;;5039009;28;20400;-77
2021/03/09 11:19:45;;;;;;;5.38;3.40;;;;;;;;;;5040571;28;20487;-76
2021/03/09 11:22:11;;;;;;;7.32;3.60;;;;;;;;;;5037661;28;20466;-76
2021/03/09 11:24:37;;;;;;;7.63;3.65;;;;;;;;;;5039841;28;20459;-76
2021/03/09 11:27:04;;;;;;;8.00;3.33;;;;;;;;;;5020625;28;20778;-76
2021/03/09 11:29:31;;;;;;;8.13;3.80;;;;;;;;;;5039622;28;20396;-77
2021/03/09 11:31:57;;;;;;;6.70;3.50;;;;;;;;;;5017661;28;21117;-76
2021/03/09 11:34:24;;;;;;;7.80;3.50;;;;;;;;;;5034320;28;20739;-78
2021/03/09 11:36:50;;;;;;;7.30;3.65;;;;;;;;;;5038622;28;20404;-75
2021/03/09 11:39:16;;;;;;;8.57;3.53;;;;;;;;;;5043608;28;20397;-76
2021/03/09 11:41:42;;;;;;;9.07;3.83;;;;;;;;;;5017062;28;20432;-76
2021/03/09 11:44:08;;;;;;;9.25;3.78;;;;;;;;;;5037703;28;20485;-77
2021/03/09 11:46:35;;;;;;;11.70;4.00;;;;;;;;;;5019840;28;20395;-76
2021/03/09 11:49:01;;;;;;;7.30;3.90;;;;;;;;;;5039475;28;20420;-76
2021/03/09 11:51:27;;;;;;;8.60;3.53;;;;;;;;;;5024061;28;20417;-76
2021/03/09 11:53:53;;;;;;;7.63;3.33;;;;;;;;;;5037820;28;20858;-75
2021/03/09 11:56:54;;;;;;;9.10;3.38;;;;;;;;;;5156288;22;20915;-71
2021/03/09 11:59:20;;;;;;;8.18;3.30;;;;;;;;;;4988596;28;20897;-71
2021/03/09 12:01:45;;;;;;;10.80;6.03;;;;;;;;;;5000235;28;20408;-71
2021/03/09 12:04:11;;;;;;;9.50;4.60;;;;;;;;;;5003446;28;20482;-73
2021/03/09 12:06:37;;;;;;;9.77;4.78;;;;;;;;;;5003463;28;20389;-76
2021/03/09 12:09:04;;;;;;;12.27;5.07;;;;;;;;;;5001029;28;20405;-74
2021/03/09 12:11:30;;;;;;;15.45;7.88;;;;;;;;;;4999075;28;20439;-73
2021/03/09 12:13:56;;;;;;;12.85;6.72;;;;;;;;;;4997892;28;20436;-74
2021/03/09 12:16:22;;;;;;;10.88;4.00;;;;;;;;;;4996566;28;20493;-73
2021/03/09 12:18:48;;;;;;;7.82;3.60;;;;;;;;;;4998019;28;20402;-73
2021/03/09 12:21:14;;;;;;;10.25;3.47;;;;;;;;;;5001353;28;20443;-73
2021/03/09 12:23:40;;;;;;;7.25;2.88;;;;;;;;;;5001048;28;20441;-73
2021/03/09 12:26:06;;;;;;;8.73;3.00;;;;;;;;;;5000975;28;21002;-73
2021/03/09 12:28:32;;;;;;;8.73;2.83;;;;;;;;;;5001095;28;20469;-73
2021/03/09 12:30:58;;;;;;;6.07;2.30;;;;;;;;;;4998562;28;20419;-74
2021/03/09 12:33:24;;;;;;;6.47;2.78;;;;;;;;;;5000366;28;20524;-71
2021/03/09 12:35:50;;;;;;;9.90;3.08;;;;;;;;;;4997567;28;20425;-74
2021/03/09 12:38:16;;;;;;;8.57;3.05;;;;;;;;;;5000127;28;20417;-72
2021/03/09 12:40:42;;;;;;;6.80;2.80;;;;;;;;;;5001216;28;20401;-72
2021/03/09 12:43:08;;;;;;;9.10;3.17;;;;;;;;;;4998260;28;20496;-71
2021/03/09 12:45:34;;;;;;;6.95;2.92;;;;;;;;;;4999559;28;20495;-73
2021/03/09 12:48:00;;;;;;;8.82;3.10;;;;;;;;;;5000649;28;20397;-71
2021/03/09 12:50:26;;;;;;;8.88;2.90;;;;;;;;;;5006024;28;20404;-72
2021/03/09 12:52:52;;;;;;;6.40;3.10;;;;;;;;;;5001028;28;20426;-73
2021/03/09 12:55:18;;;;;;;7.60;2.92;;;;;;;;;;5001327;28;20487;-72
2021/03/09 12:57:44;;;;;;;8.15;3.17;;;;;;;;;;5001963;28;20835;-71
2021/03/09 13:00:10;;;;;;;6.93;3.15;;;;;;;;;;5018099;28;21244;-71
2021/03/09 13:02:36;;;;;;;7.50;3.47;;;;;;;;;;5017781;28;20474;-71
2021/03/09 13:05:04;;;;;;;6.90;3.33;;;;;;;;;;5017348;28;20399;-72
2021/03/09 13:07:30;;;;;;;11.20;3.80;;;;;;;;;;5014899;28;20479;-72
2021/03/09 13:09:56;;;;;;;7.90;3.60;;;;;;;;;;5017840;28;20408;-73
2021/03/09 13:12:22;;;;;;;8.63;3.95;;;;;;;;;;5021109;28;20534;-73
2021/03/09 13:14:49;;;;;;;9.02;4.38;;;;;;;;;;5003800;28;20793;-73
2021/03/09 13:17:15;;;;;;;6.87;3.87;;;;;;;;;;5015205;28;20460;-72
2021/03/09 13:19:41;;;;;;;9.55;4.20;;;;;;;;;;5018537;28;20413;-72
2021/03/09 13:22:08;;;;;;;10.02;4.53;;;;;;;;;;5018644;28;20785;-71
2021/03/09 13:24:34;;;;;;;10.18;4.38;;;;;;;;;;5020766;28;20391;-73
2021/03/09 13:27:00;;;;;;;11.63;4.97;;;;;;;;;;5018449;28;21064;-72
2021/03/09 13:29:26;;;;;;;9.53;5.10;;;;;;;;;;5021253;28;20944;-71
2021/03/09 13:31:52;;;;;;;8.23;5.10;;;;;;;;;;5024516;28;20866;-71
2021/03/09 13:34:18;;;;;;;9.32;4.90;;;;;;;;;;5024681;28;20490;-72
2021/03/09 13:36:44;;;;;;;8.52;4.82;;;;;;;;;;5023533;28;20453;-75
2021/03/09 13:39:10;;;;;;;8.85;4.60;;;;;;;;;;5022759;28;20468;-71
2021/03/09 13:41:36;;;;;;;9.10;4.45;;;;;;;;;;5007408;28;20907;-74
2021/03/09 13:44:02;;;;;;;10.18;4.82;;;;;;;;;;5022236;28;20860;-72
2021/03/09 13:46:28;;;;;;;9.95;5.05;;;;;;;;;;5023309;28;20396;-73
2021/03/09 13:48:55;;;;;;;8.75;5.30;;;;;;;;;;5007722;28;20776;-75
2021/03/09 13:51:21;;;;;;;12.02;6.00;;;;;;;;;;5023758;28;20438;-73
2021/03/09 13:53:47;;;;;;;11.27;5.50;;;;;;;;;;5021652;28;20387;-76
2021/03/09 13:56:13;;;;;;;9.55;5.28;;;;;;;;;;5004637;28;20428;-75
2021/03/09 13:58:39;;;;;;;12.52;5.88;;;;;;;;;;5003920;28;21007;-73
2021/03/09 14:01:05;;;;;;;9.73;5.43;;;;;;;;;;5021912;28;20482;-75
2021/03/09 14:03:31;;;;;;;9.73;4.82;;;;;;;;;;5024072;28;20405;-74
2021/03/09 14:05:57;;;;;;;8.43;4.80;;;;;;;;;;5020160;28;20433;-74
2021/03/09 14:08:23;;;;;;;8.35;4.28;;;;;;;;;;5021612;28;20470;-73
2021/03/09 14:10:49;;;;;;;8.68;4.60;;;;;;;;;;5018688;28;21269;-73
2021/03/09 14:13:15;;;;;;;7.82;4.45;;;;;;;;;;5022391;28;20415;-73
2021/03/09 14:15:42;;;;;;;5.82;3.80;;;;;;;;;;5015405;28;20401;-73
2021/03/09 14:18:08;;;;;;;7.47;4.50;;;;;;;;;;5020261;28;20718;-73
2021/03/09 14:20:34;;;;;;;7.88;3.88;;;;;;;;;;5019046;28;20894;-74
2021/03/09 14:23:00;;;;;;;5.45;3.40;;;;;;;;;;5023284;28;20411;-73
2021/03/09 14:25:26;;;;;;;6.15;3.67;;;;;;;;;;5016625;28;20408;-73
2021/03/09 14:27:52;;;;;;;5.35;3.30;;;;;;;;;;5022956;28;21091;-72
2021/03/09 14:30:19;;;;;;;5.13;3.40;;;;;;;;;;5020527;28;20410;-74